Time;durP1;ratioP1;P1;durP2;ratioP2;P2;SDS_P1;SDS_P2;PMS_P1;PMS_P2;Temp;Humidity;BMP_temperature;BMP_pressure;BME280_temperature;BME280_humidity;BME280_pressure;Samples;Min_cycle;Max_cycle;Signal;HPM_P1;HPM_P2
2022/11/12 00:00:35;;;;;;;15.52;11.43;;;5.90;99.90;;;;;;5007086;28;20050;-50
2022/11/12 00:03:00;;;;;;;15.63;10.25;;;5.80;99.90;;;;;;5006187;28;21131;-48
2022/11/12 00:05:26;;;;;;;18.85;10.43;;;5.70;99.90;;;;;;5008338;28;20057;-47
2022/11/12 00:07:52;;;;;;;16.58;10.30;;;5.70;99.90;;;;;;5003547;28;20041;-51
2022/11/12 00:10:18;;;;;;;18.52;11.50;;;5.80;99.90;;;;;;5003295;28;20037;-46
2022/11/12 00:12:44;;;;;;;18.65;11.93;;;5.70;99.90;;;;;;5004325;28;20041;-48
2022/11/12 00:15:10;;;;;;;21.70;13.20;;;5.70;99.90;;;;;;5000789;28;20041;-47
2022/11/12 00:17:36;;;;;;;16.38;11.20;;;5.70;99.90;;;;;;5004888;28;20467;-46
2022/11/12 00:20:02;;;;;;;23.55;12.30;;;5.80;99.90;;;;;;5005075;28;20074;-45
2022/11/12 00:22:28;;;;;;;22.35;12.70;;;;;;;;;;5006742;28;20422;-47
2022/11/12 00:24:54;;;;;;;21.42;12.68;;;5.80;99.90;;;;;;5002816;28;20038;-46
2022/11/12 00:27:20;;;;;;;19.15;11.68;;;5.70;99.90;;;;;;5003651;28;20389;-49
2022/11/12 00:29:46;;;;;;;19.30;12.20;;;;;;;;;;5004306;28;20503;-47
2022/11/12 00:32:12;;;;;;;19.15;12.35;;;5.50;99.90;;;;;;5004346;28;20936;-46
2022/11/12 00:34:38;;;;;;;23.25;12.55;;;5.70;99.90;;;;;;5000409;28;20037;-50
2022/11/12 00:37:03;;;;;;;24.35;13.07;;;5.70;99.90;;;;;;5001610;28;20463;-51
2022/11/12 00:39:29;;;;;;;20.27;12.48;;;5.60;99.90;;;;;;5003505;28;20037;-50
2022/11/12 00:41:55;;;;;;;21.90;13.15;;;5.60;99.90;;;;;;5003335;28;20049;-48
2022/11/12 00:44:21;;;;;;;18.45;12.57;;;;;;;;;;5001213;28;20396;-47
2022/11/12 00:46:47;;;;;;;21.90;13.25;;;5.50;99.90;;;;;;4998506;28;20045;-48
2022/11/12 00:49:13;;;;;;;21.15;12.85;;;5.50;99.90;;;;;;5002905;28;20071;-48
2022/11/12 00:51:39;;;;;;;21.85;14.18;;;5.50;99.90;;;;;;5001401;28;20042;-46
2022/11/12 00:54:05;;;;;;;20.77;12.65;;;5.50;99.90;;;;;;5000812;28;20103;-50
2022/11/12 00:56:31;;;;;;;18.23;11.50;;;;;;;;;;5004998;28;20465;-49
2022/11/12 00:58:57;;;;;;;17.63;11.75;;;5.40;99.90;;;;;;5004205;28;20047;-50
2022/11/12 01:01:24;;;;;;;22.20;13.65;;;5.40;99.90;;;;;;5005152;28;20057;-48
2022/11/12 01:03:50;;;;;;;21.08;13.65;;;5.40;99.90;;;;;;5004917;28;20037;-48
2022/11/12 01:06:19;;;;;;;18.85;13.18;;;5.50;99.90;;;;;;5006577;28;20045;-47
2022/11/12 01:08:47;;;;;;;22.75;12.90;;;;;;;;;;5005850;28;20038;-49
2022/11/12 01:11:19;;;;;;;20.88;12.75;;;5.50;99.90;;;;;;5005979;28;20385;-46
2022/11/12 01:13:47;;;;;;;19.02;12.65;;;5.40;99.90;;;;;;5001720;28;20045;-49
2022/11/12 01:16:20;;;;;;;19.77;12.93;;;5.30;99.90;;;;;;5002044;28;20045;-50
2022/11/12 01:18:47;;;;;;;25.98;14.90;;;5.50;99.90;;;;;;5003966;28;20468;-48
2022/11/12 01:21:13;;;;;;;23.05;13.95;;;5.50;99.90;;;;;;5004234;28;20035;-49
2022/11/12 01:23:41;;;;;;;24.45;15.20;;;5.50;99.90;;;;;;5003381;28;20075;-47
2022/11/12 01:26:12;;;;;;;24.15;15.15;;;5.60;99.90;;;;;;5005393;28;20057;-48
2022/11/12 01:28:39;;;;;;;20.85;13.30;;;5.50;99.90;;;;;;5005326;28;20422;-47
2022/11/12 01:31:19;;;;;;;20.13;13.23;;;5.30;99.90;;;;;;5004829;28;20124;-50
2022/11/12 01:33:47;;;;;;;21.35;13.93;;;7.10;99.90;;;;;;5001884;28;20072;-48
2022/11/12 01:36:15;;;;;;;23.33;15.18;;;5.50;99.90;;;;;;5003179;28;20053;-50
2022/11/12 01:38:42;;;;;;;22.33;14.27;;;5.60;99.90;;;;;;5001326;28;20060;-50
2022/11/12 01:41:11;;;;;;;26.05;14.88;;;5.20;99.90;;;;;;4998223;28;20048;-47
2022/11/12 01:43:37;;;;;;;22.20;13.48;;;;;;;;;;5004585;28;20405;-46
2022/11/12 01:46:12;;;;;;;19.27;13.27;;;5.40;99.90;;;;;;5004232;28;20041;-46
2022/11/12 01:48:47;;;;;;;21.65;12.75;;;5.60;99.90;;;;;;4999410;28;20051;-47
2022/11/12 01:51:14;;;;;;;21.58;13.07;;;5.40;99.90;;;;;;5004785;28;20758;-47
2022/11/12 01:53:44;;;;;;;22.88;13.63;;;5.40;99.90;;;;;;5007231;28;20065;-49
2022/11/12 01:56:10;;;;;;;22.88;13.88;;;5.40;99.90;;;;;;5004056;28;20512;-47
2022/11/12 01:58:39;;;;;;;22.92;13.85;;;5.40;99.90;;;;;;5008579;28;20047;-47
2022/11/12 02:01:05;;;;;;;18.55;12.48;;;5.40;99.90;;;;;;5004329;28;20071;-50
2022/11/12 02:03:31;;;;;;;18.95;12.70;;;;;;;;;;5005075;28;20041;-49
2022/11/12 02:06:06;;;;;;;23.35;13.98;;;5.30;99.90;;;;;;5005224;28;20045;-45
2022/11/12 02:08:33;;;;;;;19.60;13.73;;;5.50;99.90;;;;;;5008271;28;20411;-50
2022/11/12 02:11:13;;;;;;;22.05;13.57;;;5.40;99.90;;;;;;5005917;28;20047;-47
2022/11/12 02:13:57;;;;;;;19.98;13.73;;;5.70;99.90;;;;;;5005455;28;20783;-45
2022/11/12 02:16:34;;;;;;;21.25;12.48;;;5.30;99.90;;;;;;5003227;28;20591;-49
2022/11/12 02:19:00;;;;;;;22.55;13.68;;;5.20;99.90;;;;;;5006904;28;20049;-46
2022/11/12 02:21:26;;;;;;;23.85;13.27;;;5.30;99.90;;;;;;5006433;28;20053;-48
2022/11/12 02:24:15;;;;;;;36.70;14.05;;;5.10;99.90;;;;;;5006510;28;20597;-47
2022/11/12 02:26:44;;;;;;;16.08;10.55;;;5.10;99.90;;;;;;5007865;28;20145;-49
2022/11/12 02:29:11;;;;;;;20.50;12.27;;;;;;;;;;5005460;28;20050;-46
2022/11/12 02:31:37;;;;;;;21.77;13.20;;;;;;;;;;5007159;28;20156;-47
2022/11/12 02:34:03;;;;;;;24.23;14.95;;;5.10;99.90;;;;;;5010159;28;20094;-46
2022/11/12 02:36:29;;;;;;;20.80;14.52;;;;;;;;;;5004672;28;20067;-46
2022/11/12 02:38:55;;;;;;;22.17;14.95;;;;;;;;;;5006446;28;20037;-47
2022/11/12 02:41:21;;;;;;;17.90;12.13;;;5.10;99.90;;;;;;5005584;28;20077;-48
2022/11/12 02:43:47;;;;;;;20.25;12.70;;;;;;;;;;5006970;28;20182;-46
2022/11/12 02:46:13;;;;;;;16.88;11.02;;;4.90;99.90;;;;;;5007776;28;20037;-48
2022/11/12 02:48:39;;;;;;;14.35;9.73;;;;;;;;;;5002516;28;20042;-48
2022/11/12 02:51:05;;;;;;;17.15;8.77;;;;;;;;;;5006102;28;20136;-51
2022/11/12 02:53:31;;;;;;;12.95;9.30;;;4.70;99.90;;;;;;5007305;28;20069;-45
2022/11/12 02:55:57;;;;;;;19.08;11.02;;;4.80;99.90;;;;;;5003403;28;20583;-48
2022/11/12 02:58:24;;;;;;;23.52;11.90;;;;;;;;;;5002877;28;20042;-46
2022/11/12 03:00:50;;;;;;;18.58;12.50;;;;;;;;;;5004924;28;20312;-48
2022/11/12 03:03:16;;;;;;;16.90;10.95;;;;;;;;;;5007947;28;20078;-51
2022/11/12 03:05:42;;;;;;;53.70;12.10;;;;;;;;;;5003300;28;20529;-49
2022/11/12 03:08:09;;;;;;;11.63;9.50;;;;;;;;;;5004241;28;20037;-49
2022/11/12 03:10:37;;;;;;;26.55;9.80;;;4.40;99.90;;;;;;5004864;28;20046;-50
2022/11/12 03:13:04;;;;;;;55.00;11.10;;;;;;;;;;5003294;28;20037;-47
2022/11/12 03:15:30;;;;;;;28.48;11.40;;;;;;;;;;5003437;28;20139;-48
2022/11/12 03:17:57;;;;;;;24.73;12.93;;;4.50;99.90;;;;;;5006321;28;20117;-51
2022/11/12 03:20:23;;;;;;;22.63;14.73;;;;;;;;;;5005946;28;20125;-50
2022/11/12 03:23:00;;;;;;;22.80;14.57;;;4.60;99.90;;;;;;5004784;28;20045;-47
2022/11/12 03:25:27;;;;;;;30.73;14.95;;;4.40;99.90;;;;;;5004285;28;20211;-47
2022/11/12 03:28:01;;;;;;;28.80;15.88;;;4.40;99.90;;;;;;5004830;28;20760;-47
2022/11/12 03:30:29;;;;;;;28.75;15.40;;;4.30;99.90;;;;;;5004910;28;20038;-45
2022/11/12 03:32:55;;;;;;;21.35;13.18;;;;;;;;;;4997930;28;20118;-49
2022/11/12 03:35:22;;;;;;;23.08;12.85;;;;;;;;;;5003700;28;20140;-49
2022/11/12 03:37:49;;;;;;;22.27;13.45;;;;;;;;;;5004673;28;20049;-50
2022/11/12 03:40:16;;;;;;;24.17;15.13;;;4.40;99.90;;;;;;5003600;28;20049;-49
2022/11/12 03:42:49;;;;;;;19.38;13.35;;;4.50;99.90;;;;;;5003585;28;20491;-47
2022/11/12 03:45:16;;;;;;;14.75;10.05;;;;;;;;;;5003435;28;20046;-46
2022/11/12 03:47:43;;;;;;;19.90;11.32;;;4.30;99.90;;;;;;5003322;28;20037;-46
2022/11/12 03:50:10;;;;;;;22.75;13.98;;;4.30;99.90;;;;;;5003287;28;20042;-51
2022/11/12 03:52:36;;;;;;;17.88;13.50;;;4.30;99.90;;;;;;5006107;28;20530;-45
2022/11/12 03:55:03;;;;;;;21.80;15.60;;;4.30;99.90;;;;;;5004902;28;20042;-46
2022/11/12 03:57:29;;;;;;;26.75;16.98;;;;;;;;;;5006596;28;20067;-48
2022/11/12 03:59:54;;;;;;;26.08;17.60;;;4.50;99.90;;;;;;5003862;28;20402;-47
2022/11/12 04:02:20;;;;;;;26.70;15.07;;;;;;;;;;5005208;28;20518;-47
2022/11/12 04:10:16;;;;;;;31.70;16.20;;;;;;;;;;5002758;28;20057;-49
2022/11/12 04:15:26;;;;;;;18.52;13.48;;;4.50;99.90;;;;;;5006668;28;20050;-48
2022/11/12 04:23:22;;;;;;;20.65;13.35;;;;;;;;;;5001018;28;20054;-46
2022/11/12 04:28:33;;;;;;;18.10;13.30;;;4.30;99.90;;;;;;5004078;28;20125;-47
2022/11/12 04:30:59;;;;;;;17.30;13.13;;;;;;;;;;5005746;28;20230;-49
2022/11/12 04:33:25;;;;;;;18.77;12.68;;;;;;;;;;5004249;28;20049;-48
2022/11/12 04:35:51;;;;;;;19.48;12.20;;;;;;;;;;5003818;28;20045;-48
2022/11/12 04:38:17;;;;;;;29.10;13.98;;;;;;;;;;5003763;28;20060;-46
2022/11/12 04:46:12;;;;;;;24.90;15.35;;;;;;;;;;5003954;28;20094;-47
2022/11/12 04:48:38;;;;;;;21.83;15.68;;;;;;;;;;5006683;28;20069;-51
2022/11/12 04:53:49;;;;;;;24.13;16.48;;;;;;;;;;5003016;28;20084;-49
2022/11/12 04:56:16;;;;;;;31.83;19.48;;;;;;;;;;5005215;28;20073;-51
2022/11/12 04:58:42;;;;;;;29.00;20.17;;;;;;;;;;5003048;28;20103;-48
2022/11/12 05:01:08;;;;;;;32.63;19.73;;;;;;;;;;5004104;28;20046;-50
2022/11/12 05:03:34;;;;;;;28.52;20.75;;;;;;;;;;5002443;28;20047;-49
2022/11/12 05:06:50;;;;;;;26.70;19.00;;;5.10;99.90;;;;;;5002485;28;20121;-49
2022/11/12 05:08:50;;;;;;;29.05;20.40;;;;;;;;;;5004772;28;20049;-47
2022/11/12 05:11:16;;;;;;;36.10;23.45;;;;;;;;;;5002512;28;20578;-51
2022/11/12 05:13:42;;;;;;;29.25;20.67;;;5.20;99.90;;;;;;5002037;28;20045;-49
2022/11/12 05:16:08;;;;;;;36.58;23.10;;;;;;;;;;5005381;28;20067;-48
2022/11/12 05:18:34;;;;;;;26.10;18.73;;;5.30;99.90;;;;;;5006763;28;20136;-47
2022/11/12 05:22:04;;;;;;;35.90;23.02;;;5.30;99.90;;;;;;5007264;28;21203;-48
2022/11/12 05:23:45;;;;;;;33.85;23.02;;;5.40;99.90;;;;;;5004589;28;20090;-45
2022/11/12 05:26:11;;;;;;;45.55;24.98;;;5.50;99.90;;;;;;5003141;28;20559;-48
2022/11/12 05:28:37;;;;;;;36.83;23.70;;;;;;;;;;5003147;28;20054;-50
2022/11/12 05:31:03;;;;;;;31.65;21.42;;;5.50;99.90;;;;;;5002988;28;20463;-48
2022/11/12 05:33:29;;;;;;;28.85;21.95;;;;;;;;;;5000037;28;20133;-48
2022/11/12 05:35:59;;;;;;;43.70;26.35;;;5.60;99.90;;;;;;5000167;28;20037;-50
2022/11/12 05:38:25;;;;;;;47.55;27.52;;;5.50;99.90;;;;;;4998997;28;20456;-48
2022/11/12 05:40:51;;;;;;;42.33;26.52;;;;;;;;;;5000341;28;20038;-50
2022/11/12 05:43:16;;;;;;;41.78;25.38;;;5.60;99.90;;;;;;5002916;28;20082;-49
2022/11/12 05:45:42;;;;;;;47.45;26.83;;;5.70;99.90;;;;;;5001368;28;20041;-49
2022/11/12 05:48:08;;;;;;;52.42;28.85;;;;;;;;;;5004544;28;20485;-48
2022/11/12 05:50:34;;;;;;;36.45;22.83;;;;;;;;;;5004993;28;20045;-51
2022/11/12 05:53:01;;;;;;;34.47;22.77;;;;;;;;;;5002669;28;20068;-49
2022/11/12 05:55:26;;;;;;;33.40;22.58;;;5.90;99.90;;;;;;5002446;28;20133;-46
2022/11/12 05:57:52;;;;;;;40.72;25.02;;;5.80;99.90;;;;;;5001456;28;20082;-48
2022/11/12 06:00:18;;;;;;;42.03;25.55;;;5.80;99.90;;;;;;5002034;28;20049;-51
2022/11/12 06:02:44;;;;;;;35.95;25.00;;;;;;;;;;5003097;28;20083;-48
2022/11/12 06:05:10;;;;;;;30.67;21.50;;;;;;;;;;5002104;28;20485;-48
2022/11/12 06:07:36;;;;;;;50.15;26.42;;;5.90;99.90;;;;;;5003236;28;20045;-47
2022/11/12 06:10:01;;;;;;;44.05;27.13;;;5.80;99.90;;;;;;5004034;28;20041;-48
2022/11/12 06:12:27;;;;;;;63.03;28.75;;;5.80;99.90;;;;;;5001875;28;20062;-45
2022/11/12 06:14:52;;;;;;;74.85;30.42;;;5.90;99.90;;;;;;5001389;28;20379;-50
2022/11/12 06:17:18;;;;;;;90.00;32.63;;;5.80;99.90;;;;;;4999696;28;20221;-48
2022/11/12 06:19:44;;;;;;;77.40;29.50;;;5.90;99.90;;;;;;5002905;28;20034;-48
2022/11/12 06:22:10;;;;;;;146.02;37.20;;;;;;;;;;5003927;28;20795;-45
2022/11/12 06:24:36;;;;;;;86.18;30.85;;;6.00;99.90;;;;;;5003341;28;20046;-46
2022/11/12 06:27:01;;;;;;;164.20;41.17;;;5.90;99.90;;;;;;5003053;28;20511;-47
2022/11/12 06:29:28;;;;;;;160.38;39.78;;;6.00;99.90;;;;;;5005689;28;20103;-49
2022/11/12 06:31:54;;;;;;;255.90;49.30;;;6.00;99.90;;;;;;5004324;28;20045;-47
2022/11/12 06:34:20;;;;;;;185.63;44.22;;;6.10;99.90;;;;;;5003522;28;20550;-46
2022/11/12 06:36:47;;;;;;;268.25;52.47;;;6.00;99.90;;;;;;5001172;28;20053;-51
2022/11/12 06:39:13;;;;;;;150.10;43.30;;;6.20;99.90;;;;;;5008279;28;20058;-48
2022/11/12 06:41:39;;;;;;;182.65;47.03;;;6.20;99.90;;;;;;5008672;28;20045;-46
2022/11/12 06:44:05;;;;;;;315.55;55.63;;;6.30;99.90;;;;;;5005512;28;20780;-49
2022/11/12 06:46:31;;;;;;;173.13;47.42;;;;;;;;;;5005366;28;20110;-46
2022/11/12 06:48:57;;;;;;;226.90;52.63;;;6.30;99.90;;;;;;5007549;28;20445;-50
2022/11/12 06:51:22;;;;;;;261.00;55.63;;;6.20;99.90;;;;;;5003854;28;20049;-47
2022/11/12 06:53:48;;;;;;;240.35;51.70;;;6.40;99.90;;;;;;5004765;28;20096;-47
2022/11/12 06:56:14;;;;;;;365.70;63.95;;;6.20;99.90;;;;;;5003829;28;20038;-47
2022/11/12 06:58:41;;;;;;;192.75;48.47;;;6.50;99.90;;;;;;5007832;28;20038;-49
2022/11/12 07:01:12;;;;;;;182.02;42.92;;;6.30;99.90;;;;;;5005266;28;20177;-47
2022/11/12 07:03:39;;;;;;;339.60;58.38;;;6.50;99.90;;;;;;5009026;28;20078;-47
2022/11/12 07:06:07;;;;;;;154.00;39.38;;;6.30;99.90;;;;;;5005827;28;20168;-48
2022/11/12 07:08:33;;;;;;;193.70;43.28;;;6.40;99.90;;;;;;5005277;28;20030;-48
2022/11/12 07:10:58;;;;;;;101.85;36.17;;;6.30;99.90;;;;;;5007839;28;20048;-50
2022/11/12 07:13:24;;;;;;;291.83;50.03;;;6.30;99.90;;;;;;5004218;28;20050;-48
2022/11/12 07:15:51;;;;;;;112.82;33.70;;;6.30;99.90;;;;;;5007541;28;20132;-51
2022/11/12 07:18:17;;;;;;;199.55;43.22;;;6.30;99.90;;;;;;5005689;28;20110;-47
2022/11/12 07:20:43;;;;;;;97.57;29.90;;;6.30;99.90;;;;;;5004765;28;21205;-46
2022/11/12 07:23:08;;;;;;;130.73;32.15;;;6.30;99.90;;;;;;5004463;28;20107;-49
2022/11/12 07:25:34;;;;;;;203.63;38.72;;;6.20;99.90;;;;;;5003764;28;20061;-47
2022/11/12 07:28:00;;;;;;;244.02;45.88;;;6.00;99.90;;;;;;5005233;28;20049;-47
2022/11/12 07:30:26;;;;;;;189.25;42.38;;;;;;;;;;5002891;28;20437;-46
2022/11/12 07:32:51;;;;;;;97.50;28.88;;;6.10;99.90;;;;;;5004845;28;20451;-47
2022/11/12 07:35:17;;;;;;;232.60;43.53;;;6.20;99.90;;;;;;5005955;28;20037;-47
2022/11/12 07:37:43;;;;;;;95.75;28.33;;;6.30;99.90;;;;;;5004686;28;20097;-46
2022/11/12 07:40:09;;;;;;;147.90;38.05;;;6.30;99.90;;;;;;5000529;28;21664;-51
2022/11/12 07:42:35;;;;;;;113.85;34.65;;;6.20;99.90;;;;;;4999434;28;20060;-47
2022/11/12 07:45:00;;;;;;;116.57;31.48;;;6.30;99.90;;;;;;5002914;28;20076;-49
2022/11/12 07:47:26;;;;;;;163.88;34.30;;;6.20;99.90;;;;;;4998041;28;20037;-49
2022/11/12 07:49:52;;;;;;;109.53;29.90;;;6.20;99.90;;;;;;5004095;28;20046;-47
2022/11/12 07:52:18;;;;;;;163.27;33.50;;;6.10;99.90;;;;;;5002710;28;20140;-46
2022/11/12 07:54:44;;;;;;;174.05;38.38;;;6.30;99.90;;;;;;5001410;28;20048;-47
2022/11/12 07:57:09;;;;;;;158.63;35.63;;;6.20;99.90;;;;;;5005562;28;20407;-47
2022/11/12 07:59:35;;;;;;;253.32;44.45;;;6.30;99.90;;;;;;5006057;28;20072;-48
2022/11/12 08:02:00;;;;;;;205.30;39.53;;;6.20;99.90;;;;;;5004987;28;20068;-47
2022/11/12 08:04:26;;;;;;;235.45;43.05;;;6.40;99.90;;;;;;5006248;28;20045;-46
2022/11/12 08:06:52;;;;;;;159.45;36.22;;;;;;;;;;5006328;28;20049;-49
2022/11/12 08:09:18;;;;;;;168.40;37.00;;;6.30;99.90;;;;;;5006941;28;20038;-46
2022/11/12 08:11:44;;;;;;;252.75;44.17;;;6.40;99.90;;;;;;5000345;28;20068;-49
2022/11/12 08:14:09;;;;;;;178.30;39.65;;;6.50;99.90;;;;;;5008352;28;20116;-46
2022/11/12 08:16:35;;;;;;;145.50;40.13;;;6.40;99.90;;;;;;4998619;28;20503;-49
2022/11/12 08:19:01;;;;;;;197.95;41.25;;;6.40;99.90;;;;;;5003853;28;20041;-45
2022/11/12 08:21:27;;;;;;;213.90;43.42;;;6.70;99.90;;;;;;5004432;28;20704;-49
2022/11/12 08:23:52;;;;;;;218.65;44.22;;;6.60;99.90;;;;;;5004810;28;20042;-47
2022/11/12 08:26:19;;;;;;;172.88;39.10;;;6.60;99.90;;;;;;5003959;28;20064;-49
2022/11/12 08:28:45;;;;;;;140.13;36.63;;;6.70;99.90;;;;;;5003524;28;20049;-46
2022/11/12 08:31:14;;;;;;;208.10;40.63;;;6.80;99.90;;;;;;5003607;28;20794;-46
2022/11/12 08:33:40;;;;;;;141.52;37.40;;;7.80;99.90;;;;;;5003967;28;20091;-47
2022/11/12 08:36:11;;;;;;;130.40;35.67;;;6.90;99.90;;;;;;5001926;28;20087;-45
2022/11/12 08:38:38;;;;;;;155.80;38.17;;;7.00;99.90;;;;;;5003481;28;20486;-45
2022/11/12 08:41:06;;;;;;;171.00;39.60;;;7.00;99.90;;;;;;5003092;28;20048;-45
2022/11/12 08:43:32;;;;;;;209.98;42.95;;;7.00;99.90;;;;;;5006773;28;20114;-47
2022/11/12 08:45:59;;;;;;;207.50;44.22;;;7.20;99.90;;;;;;5001902;28;20047;-48
2022/11/12 08:48:26;;;;;;;273.83;50.95;;;7.20;99.90;;;;;;5004117;28;20380;-46
2022/11/12 08:50:52;;;;;;;189.82;41.60;;;7.20;99.90;;;;;;5002618;28;20072;-47
2022/11/12 08:53:17;;;;;;;105.22;36.38;;;7.30;99.90;;;;;;5003328;28;20132;-48
2022/11/12 08:55:43;;;;;;;131.68;37.45;;;7.30;99.90;;;;;;5005222;28;20053;-46
2022/11/12 08:58:09;;;;;;;263.30;47.05;;;7.40;99.90;;;;;;5004016;28;20453;-47
2022/11/12 09:00:42;;;;;;;350.30;51.80;;;7.50;99.90;;;;;;5005693;28;20128;-46
2022/11/12 09:03:13;;;;;;;202.95;41.78;;;7.60;99.90;;;;;;5004158;28;20041;-50
2022/11/12 09:05:39;;;;;;;270.33;47.40;;;7.80;99.90;;;;;;5007259;28;20522;-48
2022/11/12 09:08:10;;;;;;;152.70;39.20;;;6.90;99.90;;;;;;5001367;28;20045;-44
2022/11/12 09:10:37;;;;;;;257.42;44.63;;;8.50;99.90;;;;;;5004537;28;20120;-47
2022/11/12 09:13:03;;;;;;;213.02;44.47;;;8.10;99.90;;;;;;5005204;28;20034;-49
2022/11/12 09:15:30;;;;;;;293.25;47.33;;;7.70;99.90;;;;;;5005072;28;20340;-48
2022/11/12 09:17:57;;;;;;;272.75;46.42;;;9.30;99.90;;;;;;5003675;28;20045;-45
2022/11/12 09:20:23;;;;;;;252.15;45.10;;;9.00;99.90;;;;;;5004051;28;20136;-47
2022/11/12 09:22:49;;;;;;;236.63;41.33;;;8.20;99.90;;;;;;5006113;28;20594;-49
2022/11/12 09:25:15;;;;;;;120.97;34.15;;;8.80;99.90;;;;;;5005131;28;20466;-46
2022/11/12 09:27:41;;;;;;;274.30;46.13;;;7.90;99.90;;;;;;5005129;28;20045;-46
2022/11/12 09:30:07;;;;;;;131.13;35.72;;;7.80;99.90;;;;;;5003672;28;20412;-47
2022/11/12 09:32:33;;;;;;;220.82;41.58;;;7.80;99.90;;;;;;5006326;28;20052;-46
2022/11/12 09:34:59;;;;;;;248.82;41.33;;;7.80;99.90;;;;;;5008619;28;20049;-47
2022/11/12 09:37:24;;;;;;;224.38;40.58;;;7.80;99.90;;;;;;5006336;28;20094;-45
2022/11/12 09:39:50;;;;;;;215.43;40.03;;;7.70;99.90;;;;;;5005038;28;20541;-46
2022/11/12 09:42:19;;;;;;;180.40;38.60;;;7.90;99.90;;;;;;5003725;28;20042;-45
2022/11/12 09:44:59;;;;;;;332.90;46.47;;;7.70;99.90;;;;;;5003258;28;20050;-44
2022/11/12 09:47:42;;;;;;;268.70;43.38;;;7.80;99.90;;;;;;5006371;28;20231;-45
2022/11/12 09:50:32;;;;;;;232.35;40.78;;;7.70;99.90;;;;;;5003131;28;20462;-46
2022/11/12 09:53:07;;;;;;;281.60;43.80;;;7.70;99.90;;;;;;5001218;28;20073;-50
2022/11/12 09:55:38;;;;;;;97.57;31.85;;;7.70;99.90;;;;;;5004001;28;20507;-49
2022/11/12 09:58:11;;;;;;;193.82;39.28;;;7.90;99.90;;;;;;5003213;28;20029;-45
2022/11/12 10:00:40;;;;;;;111.95;33.55;;;7.70;99.90;;;;;;5002715;28;20050;-49
2022/11/12 10:03:58;;;;;;;139.60;32.95;;;7.60;99.90;;;;;;5001571;28;20098;-46
2022/11/12 10:06:33;;;;;;;110.15;31.58;;;7.60;99.90;;;;;;5060895;28;20127;-48
2022/11/12 10:09:08;;;;;;;189.55;38.42;;;7.50;99.90;;;;;;5061186;28;20672;-46
2022/11/12 10:18:08;;;;;;;198.90;38.53;;;7.60;99.90;;;;;;5002961;28;20285;-49
2022/11/12 10:20:49;;;;;;;;;;;7.90;99.90;;;;;;5006139;28;20045;-48
2022/11/12 10:23:16;;;;;;;138.30;34.20;;;7.70;99.90;;;;;;5004711;28;19929;-48
2022/11/12 10:25:44;;;;;;;174.57;38.33;;;7.60;99.90;;;;;;5008464;28;20131;-47
2022/11/12 10:28:26;;;;;;;224.35;43.55;;;9.10;99.90;;;;;;5005406;28;20587;-48
2022/11/12 10:30:57;;;;;;;150.82;38.22;;;9.90;99.90;;;;;;5005404;28;20053;-47
2022/11/12 10:33:23;;;;;;;122.32;36.80;;;9.70;99.90;;;;;;5006929;28;20131;-47
2022/11/12 10:35:51;;;;;;;189.43;40.15;;;8.10;99.90;;;;;;5007503;28;20049;-49
2022/11/12 10:38:25;;;;;;;214.73;41.60;;;7.70;99.90;;;;;;4996420;28;20778;-50
2022/11/12 10:40:51;;;;;;;153.80;36.65;;;7.70;99.90;;;;;;4997216;28;20074;-49
2022/11/12 10:43:16;;;;;;;167.95;38.83;;;7.70;99.90;;;;;;4996073;28;20571;-48
2022/11/12 10:45:44;;;;;;;171.40;39.33;;;7.80;99.90;;;;;;5001836;28;20050;-47
2022/11/12 10:48:39;;;;;;;196.88;40.88;;;7.80;99.90;;;;;;5000441;28;20045;-50
2022/11/12 10:51:25;;;;;;;115.32;35.58;;;8.60;99.90;;;;;;4990237;28;20134;-49
2022/11/12 10:53:51;;;;;;;136.40;34.85;;;7.80;99.90;;;;;;5005191;28;20285;-47
2022/11/12 10:56:28;;;;;;;159.13;38.50;;;7.80;99.90;;;;;;5001146;28;20547;-48
2022/11/12 10:59:24;;;;;;;171.93;39.08;;;9.00;99.90;;;;;;5002250;28;20118;-47
2022/11/12 11:01:58;;;;;;;201.02;36.53;;;7.90;99.90;;;;;;5002324;28;20132;-51
2022/11/12 11:04:31;;;;;;;117.28;30.58;;;7.80;99.90;;;;;;5005892;28;20860;-48
2022/11/12 11:07:19;;;;;;;169.43;36.85;;;7.80;99.90;;;;;;5000739;28;20057;-48
2022/11/12 11:09:59;;;;;;;140.18;35.22;;;8.00;99.90;;;;;;5004232;28;20144;-47
2022/11/12 11:12:31;;;;;;;82.38;29.67;;;7.90;99.90;;;;;;5002841;28;20034;-46
2022/11/12 11:15:19;;;;;;;63.45;29.65;;;7.80;99.90;;;;;;4994618;28;20129;-51
2022/11/12 11:17:45;;;;;;;93.78;31.10;;;8.00;99.90;;;;;;4995462;28;20045;-46
2022/11/12 11:20:19;;;;;;;101.53;33.15;;;7.80;99.90;;;;;;5004003;28;20594;-48
2022/11/12 11:23:13;;;;;;;78.93;33.97;;;7.80;99.90;;;;;;5000040;28;20400;-48
2022/11/12 11:25:41;;;;;;;93.30;34.60;;;8.90;99.90;;;;;;5001410;28;20053;-49
2022/11/12 11:28:07;;;;;;;91.60;37.20;;;9.20;99.90;;;;;;5003434;28;20091;-46
2022/11/12 11:30:37;;;;;;;83.07;34.42;;;6.00;99.90;;;;;;5005565;28;20057;-48
2022/11/12 11:33:21;;;;;;;81.15;35.15;;;8.30;99.90;;;;;;5002299;28;20048;-47
2022/11/12 11:36:18;;;;;;;73.53;37.22;;;8.10;99.90;;;;;;5003109;28;20546;-48
2022/11/12 11:38:52;;;;;;;66.22;34.03;;;8.00;99.90;;;;;;5000182;28;20094;-49
2022/11/12 11:41:43;;;;;;;68.40;35.95;;;7.90;99.90;;;;;;5004461;28;20041;-48
2022/11/12 11:44:23;;;;;;;58.70;35.20;;;8.10;99.90;;;;;;5002473;28;20045;-46
2022/11/12 11:47:00;;;;;;;59.70;35.03;;;8.40;99.90;;;;;;5004919;28;20080;-47
2022/11/12 11:50:00;;;;;;;64.97;36.10;;;8.10;99.90;;;;;;5003576;28;21087;-47
2022/11/12 11:52:45;;;;;;;64.50;34.83;;;8.20;99.90;;;;;;5000992;28;20136;-49
2022/11/12 11:55:27;;;;;;;81.82;37.03;;;8.20;99.90;;;;;;5003817;28;20152;-47
2022/11/12 11:57:56;;;;;;;55.22;35.08;;;8.20;99.90;;;;;;5003649;28;20049;-47
2022/11/12 12:00:44;;;;;;;58.03;35.85;;;8.40;99.90;;;;;;5001840;28;20050;-48
2022/11/12 12:03:21;;;;;;;72.35;37.40;;;8.30;99.90;;;;;;5004317;28;20548;-46
2022/11/12 12:06:02;;;;;;;63.53;36.90;;;8.40;99.90;;;;;;5003265;28;20053;-49
2022/11/12 12:08:46;;;;;;;57.45;35.92;;;8.40;99.90;;;;;;4996047;28;20552;-48
2022/11/12 12:11:22;;;;;;;59.92;35.00;;;8.60;99.90;;;;;;4996978;28;20109;-48
2022/11/12 12:14:39;;;;;;;49.00;32.55;;;8.50;99.90;;;;;;4998510;28;20125;-48
2022/11/12 12:17:18;;;;;;;56.63;34.28;;;8.40;99.90;;;;;;5014624;28;20442;-50
2022/11/12 12:20:02;;;;;;;53.20;34.58;;;8.50;99.90;;;;;;5001774;28;20037;-47
2022/11/12 12:22:40;;;;;;;51.80;33.38;;;8.50;99.90;;;;;;4999704;28;20042;-52
2022/11/12 12:25:16;;;;;;;50.17;33.03;;;8.50;99.90;;;;;;5002805;28;20777;-47
2022/11/12 12:28:14;;;;;;;50.42;34.08;;;8.60;99.90;;;;;;5003558;28;20053;-47
2022/11/12 12:30:47;;;;;;;51.60;34.35;;;8.50;99.90;;;;;;4998018;28;20080;-49
2022/11/12 12:33:19;;;;;;;52.75;34.40;;;8.50;99.90;;;;;;4988612;28;20515;-51
2022/11/12 12:36:11;;;;;;;47.20;33.13;;;9.40;99.90;;;;;;5002087;28;20468;-51
2022/11/12 12:38:47;;;;;;;48.45;33.42;;;8.60;99.90;;;;;;4999525;28;20042;-51
2022/11/12 12:41:28;;;;;;;52.33;35.78;;;10.50;99.90;;;;;;5001618;28;20049;-48
2022/11/12 12:44:01;;;;;;;47.75;33.60;;;8.50;99.90;;;;;;4999885;28;20059;-49
2022/11/12 12:46:29;;;;;;;48.97;33.72;;;9.40;99.90;;;;;;5001712;28;20050;-48
2022/11/12 12:48:57;;;;;;;56.33;35.60;;;10.70;99.90;;;;;;5005080;28;20045;-49
2022/11/12 12:51:33;;;;;;;58.03;36.60;;;9.50;99.90;;;;;;5003105;28;20056;-49
2022/11/12 12:53:58;;;;;;;49.67;35.03;;;9.20;99.90;;;;;;4998989;28;20055;-46
2022/11/12 12:56:27;;;;;;;48.63;33.83;;;9.60;99.90;;;;;;5001860;28;20041;-49
2022/11/12 12:58:54;;;;;;;47.28;33.17;;;8.80;99.90;;;;;;5001867;28;20046;-46
2022/11/12 13:01:22;;;;;;;44.72;33.35;;;8.80;99.90;;;;;;4993699;28;20079;-50
2022/11/12 13:03:51;;;;;;;43.35;32.60;;;10.90;99.90;;;;;;5001579;28;20042;-48
2022/11/12 13:06:26;;;;;;;41.53;31.90;;;9.00;99.90;;;;;;4997885;28;20521;-46
2022/11/12 13:09:00;;;;;;;40.67;31.35;;;10.30;99.90;;;;;;5001745;28;20053;-47
2022/11/12 13:14:33;;;;;;;43.67;30.85;;;8.90;99.90;;;;;;4990560;28;20582;-49
2022/11/12 13:17:01;;;;;;;43.33;31.90;;;8.90;99.90;;;;;;4997757;28;20045;-47
2022/11/12 13:19:33;;;;;;;45.45;32.65;;;8.70;99.90;;;;;;5001945;28;20314;-46
2022/11/12 13:22:17;;;;;;;38.72;29.13;;;8.70;99.90;;;;;;5001647;28;20428;-48
2022/11/12 13:25:04;;;;;;;35.13;27.95;;;9.30;99.90;;;;;;4995866;28;20045;-50
2022/11/12 13:27:39;;;;;;;43.45;31.63;;;8.50;99.90;;;;;;4994872;28;20762;-49
2022/11/12 13:30:16;;;;;;;47.33;32.58;;;8.70;99.90;;;;;;5003545;28;20050;-47
2022/11/12 13:32:50;;;;;;;45.40;33.40;;;9.10;99.90;;;;;;4995778;28;20049;-51
2022/11/12 13:35:16;;;;;;;48.30;31.40;;;9.70;99.90;;;;;;4999047;28;20041;-49
2022/11/12 13:37:47;;;;;;;41.90;31.45;;;9.80;99.90;;;;;;4990814;28;20048;-47